Rock Creek, Ohio
Current Conditions -  °F | °C
As of 12:53 AM on Wednesday 22 Oct 2014 (Local Time) from KHZY Reporting Station
Light Rain Light Rain  
Wind Chill:   Ceiling: 700
Heat Index:   Visibility: 3mi
Dew Point:   Wind: 7mph
Humidity: 93%   Direction: 20°NNE
Pressure: 30.11"   Gusts: NA
Location:  41.66°N, 80.86°W
Report Text: KHZY 220453Z AUTO 02006KT 3SM -RA BR OVC007 08/07 A3011 RMK AO2 RAB0357 CIG 004V009 SLP198 P0002 T00780067 401110078
Loading
Personal Weather Stations






























Interactive Weather Map
Tropical Storm Tracking
New forecast layout! Learn more

10-Day Weather Forecast

Advertisements
Track Severe Weather on mobile